sensor_id;sensor_type;location;lat;lon;timestamp;P1;durP1;ratioP1;P2;durP2;ratioP2
67981;SDS011;64109;52.148;4.466;2023-04-09T00:01:52;7.40;;;5.10;;
67981;SDS011;64109;52.148;4.466;2023-04-09T00:04:18;7.13;;;5.00;;
67981;SDS011;64109;52.148;4.466;2023-04-09T00:06:46;9.63;;;5.45;;
67981;SDS011;64109;52.148;4.466;2023-04-09T00:09:12;8.73;;;5.40;;
67981;SDS011;64109;52.148;4.466;2023-04-09T00:11:38;8.73;;;5.78;;
67981;SDS011;64109;52.148;4.466;2023-04-09T00:14:04;8.02;;;5.90;;
67981;SDS011;64109;52.148;4.466;2023-04-09T00:16:30;8.57;;;5.78;;
67981;SDS011;64109;52.148;4.466;2023-04-09T00:18:56;8.43;;;5.43;;
67981;SDS011;64109;52.148;4.466;2023-04-09T00:21:22;8.43;;;5.28;;
67981;SDS011;64109;52.148;4.466;2023-04-09T00:23:48;7.65;;;5.20;;
67981;SDS011;64109;52.148;4.466;2023-04-09T00:26:14;8.80;;;5.45;;
67981;SDS011;64109;52.148;4.466;2023-04-09T00:28:40;8.85;;;5.40;;
67981;SDS011;64109;52.148;4.466;2023-04-09T00:31:06;8.73;;;5.50;;
67981;SDS011;64109;52.148;4.466;2023-04-09T00:33:32;8.13;;;5.28;;
67981;SDS011;64109;52.148;4.466;2023-04-09T00:35:58;8.73;;;6.15;;
67981;SDS011;64109;52.148;4.466;2023-04-09T00:38:24;8.00;;;5.68;;
67981;SDS011;64109;52.148;4.466;2023-04-09T00:40:51;9.93;;;5.15;;
67981;SDS011;64109;52.148;4.466;2023-04-09T00:43:17;8.35;;;5.55;;
67981;SDS011;64109;52.148;4.466;2023-04-09T00:45:43;7.30;;;5.40;;
67981;SDS011;64109;52.148;4.466;2023-04-09T00:48:10;9.00;;;5.93;;
67981;SDS011;64109;52.148;4.466;2023-04-09T00:50:36;8.73;;;5.53;;
67981;SDS011;64109;52.148;4.466;2023-04-09T00:53:03;8.98;;;5.47;;
67981;SDS011;64109;52.148;4.466;2023-04-09T00:55:29;9.15;;;5.70;;
67981;SDS011;64109;52.148;4.466;2023-04-09T00:57:56;7.88;;;5.45;;
67981;SDS011;64109;52.148;4.466;2023-04-09T01:00:22;8.32;;;6.05;;
67981;SDS011;64109;52.148;4.466;2023-04-09T01:02:48;7.63;;;5.65;;
67981;SDS011;64109;52.148;4.466;2023-04-09T01:05:16;8.30;;;5.75;;
67981;SDS011;64109;52.148;4.466;2023-04-09T01:07:55;7.45;;;5.43;;
67981;SDS011;64109;52.148;4.466;2023-04-09T01:10:28;9.98;;;6.00;;
67981;SDS011;64109;52.148;4.466;2023-04-09T01:15:26;9.30;;;5.50;;
67981;SDS011;64109;52.148;4.466;2023-04-09T01:17:58;8.00;;;5.72;;
67981;SDS011;64109;52.148;4.466;2023-04-09T01:20:40;8.23;;;6.00;;
67981;SDS011;64109;52.148;4.466;2023-04-09T01:30:47;8.30;;;5.53;;
67981;SDS011;64109;52.148;4.466;2023-04-09T01:33:15;8.05;;;5.68;;
67981;SDS011;64109;52.148;4.466;2023-04-09T01:35:42;8.40;;;5.88;;
67981;SDS011;64109;52.148;4.466;2023-04-09T01:38:09;8.73;;;6.05;;
67981;SDS011;64109;52.148;4.466;2023-04-09T01:40:35;8.88;;;6.22;;
67981;SDS011;64109;52.148;4.466;2023-04-09T01:43:02;8.55;;;5.68;;
67981;SDS011;64109;52.148;4.466;2023-04-09T01:45:28;8.40;;;6.22;;
67981;SDS011;64109;52.148;4.466;2023-04-09T01:47:54;8.50;;;5.78;;
67981;SDS011;64109;52.148;4.466;2023-04-09T01:50:20;7.18;;;5.43;;
67981;SDS011;64109;52.148;4.466;2023-04-09T01:52:47;8.77;;;5.85;;
67981;SDS011;64109;52.148;4.466;2023-04-09T01:55:13;7.97;;;5.38;;
67981;SDS011;64109;52.148;4.466;2023-04-09T01:57:39;8.93;;;5.47;;
67981;SDS011;64109;52.148;4.466;2023-04-09T02:00:05;8.90;;;6.28;;
67981;SDS011;64109;52.148;4.466;2023-04-09T02:02:35;9.15;;;6.05;;
67981;SDS011;64109;52.148;4.466;2023-04-09T02:05:02;8.48;;;6.30;;
67981;SDS011;64109;52.148;4.466;2023-04-09T02:07:40;7.68;;;5.45;;
67981;SDS011;64109;52.148;4.466;2023-04-09T02:10:07;9.68;;;6.68;;
67981;SDS011;64109;52.148;4.466;2023-04-09T02:12:35;11.77;;;6.80;;
67981;SDS011;64109;52.148;4.466;2023-04-09T02:15:01;8.85;;;5.88;;
67981;SDS011;64109;52.148;4.466;2023-04-09T02:17:27;9.60;;;6.70;;
67981;SDS011;64109;52.148;4.466;2023-04-09T02:19:53;9.00;;;6.07;;
67981;SDS011;64109;52.148;4.466;2023-04-09T02:22:20;9.98;;;6.22;;
67981;SDS011;64109;52.148;4.466;2023-04-09T02:24:46;10.15;;;6.15;;
67981;SDS011;64109;52.148;4.466;2023-04-09T02:27:12;10.00;;;7.22;;
67981;SDS011;64109;52.148;4.466;2023-04-09T02:29:39;9.65;;;6.05;;
67981;SDS011;64109;52.148;4.466;2023-04-09T02:32:05;11.23;;;6.65;;
67981;SDS011;64109;52.148;4.466;2023-04-09T02:34:31;8.68;;;5.65;;
67981;SDS011;64109;52.148;4.466;2023-04-09T02:36:57;10.10;;;6.82;;
67981;SDS011;64109;52.148;4.466;2023-04-09T02:39:23;10.60;;;7.10;;
67981;SDS011;64109;52.148;4.466;2023-04-09T02:41:49;12.10;;;7.00;;
67981;SDS011;64109;52.148;4.466;2023-04-09T02:44:15;11.82;;;6.57;;
67981;SDS011;64109;52.148;4.466;2023-04-09T02:46:41;8.80;;;6.03;;
67981;SDS011;64109;52.148;4.466;2023-04-09T02:49:07;9.35;;;6.22;;
67981;SDS011;64109;52.148;4.466;2023-04-09T02:51:36;10.27;;;6.45;;
67981;SDS011;64109;52.148;4.466;2023-04-09T02:54:02;9.70;;;6.45;;
67981;SDS011;64109;52.148;4.466;2023-04-09T02:56:28;8.75;;;6.30;;
67981;SDS011;64109;52.148;4.466;2023-04-09T02:58:54;9.52;;;6.05;;
67981;SDS011;64109;52.148;4.466;2023-04-09T03:01:20;10.75;;;6.43;;
67981;SDS011;64109;52.148;4.466;2023-04-09T03:03:46;10.75;;;6.93;;
67981;SDS011;64109;52.148;4.466;2023-04-09T03:06:12;10.23;;;6.55;;
67981;SDS011;64109;52.148;4.466;2023-04-09T03:08:38;11.20;;;7.38;;
67981;SDS011;64109;52.148;4.466;2023-04-09T03:11:04;12.02;;;7.07;;
67981;SDS011;64109;52.148;4.466;2023-04-09T03:13:30;9.07;;;6.53;;
67981;SDS011;64109;52.148;4.466;2023-04-09T03:15:56;9.52;;;6.53;;
67981;SDS011;64109;52.148;4.466;2023-04-09T03:18:22;9.60;;;6.70;;
67981;SDS011;64109;52.148;4.466;2023-04-09T03:20:48;8.93;;;6.43;;
67981;SDS011;64109;52.148;4.466;2023-04-09T03:23:14;10.68;;;6.78;;
67981;SDS011;64109;52.148;4.466;2023-04-09T03:25:40;9.95;;;6.97;;
67981;SDS011;64109;52.148;4.466;2023-04-09T03:28:06;10.38;;;6.47;;
67981;SDS011;64109;52.148;4.466;2023-04-09T03:30:32;9.60;;;6.18;;
67981;SDS011;64109;52.148;4.466;2023-04-09T03:32:58;11.38;;;7.05;;
67981;SDS011;64109;52.148;4.466;2023-04-09T03:35:24;11.80;;;7.30;;
67981;SDS011;64109;52.148;4.466;2023-04-09T03:37:50;9.65;;;6.30;;
67981;SDS011;64109;52.148;4.466;2023-04-09T03:40:16;10.98;;;6.90;;
67981;SDS011;64109;52.148;4.466;2023-04-09T03:42:42;11.50;;;6.53;;
67981;SDS011;64109;52.148;4.466;2023-04-09T03:45:08;10.35;;;7.13;;
67981;SDS011;64109;52.148;4.466;2023-04-09T03:47:34;10.68;;;6.88;;
67981;SDS011;64109;52.148;4.466;2023-04-09T03:50:00;10.88;;;7.25;;
67981;SDS011;64109;52.148;4.466;2023-04-09T03:52:26;12.15;;;7.18;;
67981;SDS011;64109;52.148;4.466;2023-04-09T03:54:52;11.30;;;7.15;;
67981;SDS011;64109;52.148;4.466;2023-04-09T03:57:18;11.98;;;7.40;;
67981;SDS011;64109;52.148;4.466;2023-04-09T03:59:44;11.80;;;7.60;;
67981;SDS011;64109;52.148;4.466;2023-04-09T04:02:10;10.98;;;7.22;;
67981;SDS011;64109;52.148;4.466;2023-04-09T04:04:36;11.93;;;6.97;;
67981;SDS011;64109;52.148;4.466;2023-04-09T04:07:02;11.23;;;7.13;;
67981;SDS011;64109;52.148;4.466;2023-04-09T04:09:28;12.88;;;7.05;;
67981;SDS011;64109;52.148;4.466;2023-04-09T04:11:54;10.50;;;6.85;;
67981;SDS011;64109;52.148;4.466;2023-04-09T04:14:22;10.38;;;7.03;;
67981;SDS011;64109;52.148;4.466;2023-04-09T04:16:48;11.30;;;7.32;;
67981;SDS011;64109;52.148;4.466;2023-04-09T04:19:14;10.27;;;6.63;;
67981;SDS011;64109;52.148;4.466;2023-04-09T04:21:40;11.95;;;6.80;;
67981;SDS011;64109;52.148;4.466;2023-04-09T04:24:06;10.32;;;6.95;;
67981;SDS011;64109;52.148;4.466;2023-04-09T04:26:32;9.75;;;6.43;;
67981;SDS011;64109;52.148;4.466;2023-04-09T04:28:58;11.85;;;6.97;;
67981;SDS011;64109;52.148;4.466;2023-04-09T04:31:24;10.52;;;6.68;;
67981;SDS011;64109;52.148;4.466;2023-04-09T04:33:50;10.13;;;6.97;;
67981;SDS011;64109;52.148;4.466;2023-04-09T04:36:16;10.38;;;6.60;;
67981;SDS011;64109;52.148;4.466;2023-04-09T04:38:42;11.48;;;7.68;;
67981;SDS011;64109;52.148;4.466;2023-04-09T04:41:09;10.52;;;7.20;;
67981;SDS011;64109;52.148;4.466;2023-04-09T04:43:35;13.18;;;7.15;;
67981;SDS011;64109;52.148;4.466;2023-04-09T04:46:01;10.30;;;6.80;;
67981;SDS011;64109;52.148;4.466;2023-04-09T04:48:27;10.85;;;7.28;;
67981;SDS011;64109;52.148;4.466;2023-04-09T04:50:58;10.38;;;6.90;;
67981;SDS011;64109;52.148;4.466;2023-04-09T04:53:24;9.95;;;6.88;;
67981;SDS011;64109;52.148;4.466;2023-04-09T04:55:51;11.48;;;7.20;;
67981;SDS011;64109;52.148;4.466;2023-04-09T04:58:17;11.57;;;6.97;;
67981;SDS011;64109;52.148;4.466;2023-04-09T05:00:43;9.77;;;6.55;;
67981;SDS011;64109;52.148;4.466;2023-04-09T05:03:09;20.75;;;7.50;;
67981;SDS011;64109;52.148;4.466;2023-04-09T05:05:35;10.05;;;6.93;;
67981;SDS011;64109;52.148;4.466;2023-04-09T05:08:01;10.82;;;6.88;;
67981;SDS011;64109;52.148;4.466;2023-04-09T05:10:28;11.77;;;6.97;;
67981;SDS011;64109;52.148;4.466;2023-04-09T05:12:54;9.57;;;6.60;;
67981;SDS011;64109;52.148;4.466;2023-04-09T05:15:20;11.45;;;6.60;;
67981;SDS011;64109;52.148;4.466;2023-04-09T05:17:46;11.38;;;7.07;;
67981;SDS011;64109;52.148;4.466;2023-04-09T05:20:13;10.32;;;6.75;;
67981;SDS011;64109;52.148;4.466;2023-04-09T05:22:39;10.75;;;7.20;;
67981;SDS011;64109;52.148;4.466;2023-04-09T05:25:06;10.65;;;6.95;;
67981;SDS011;64109;52.148;4.466;2023-04-09T05:27:32;9.77;;;6.75;;
67981;SDS011;64109;52.148;4.466;2023-04-09T05:29:58;10.85;;;7.30;;
67981;SDS011;64109;52.148;4.466;2023-04-09T05:32:24;9.15;;;6.68;;
67981;SDS011;64109;52.148;4.466;2023-04-09T05:34:50;10.52;;;6.93;;
67981;SDS011;64109;52.148;4.466;2023-04-09T05:37:16;10.45;;;6.70;;
67981;SDS011;64109;52.148;4.466;2023-04-09T05:39:42;11.15;;;6.82;;
67981;SDS011;64109;52.148;4.466;2023-04-09T05:42:08;10.57;;;7.18;;
67981;SDS011;64109;52.148;4.466;2023-04-09T05:44:34;10.32;;;7.18;;
67981;SDS011;64109;52.148;4.466;2023-04-09T05:47:00;11.07;;;7.15;;
67981;SDS011;64109;52.148;4.466;2023-04-09T05:49:26;9.82;;;6.40;;
67981;SDS011;64109;52.148;4.466;2023-04-09T05:51:52;10.55;;;6.55;;
67981;SDS011;64109;52.148;4.466;2023-04-09T05:54:18;11.80;;;6.88;;
67981;SDS011;64109;52.148;4.466;2023-04-09T05:56:44;9.75;;;7.13;;
67981;SDS011;64109;52.148;4.466;2023-04-09T05:59:10;10.88;;;7.18;;
67981;SDS011;64109;52.148;4.466;2023-04-09T06:01:36;12.48;;;7.82;;
67981;SDS011;64109;52.148;4.466;2023-04-09T06:04:02;10.85;;;7.45;;
67981;SDS011;64109;52.148;4.466;2023-04-09T06:06:28;10.80;;;7.28;;
67981;SDS011;64109;52.148;4.466;2023-04-09T06:08:54;11.40;;;7.22;;
67981;SDS011;64109;52.148;4.466;2023-04-09T06:11:20;11.00;;;7.43;;
67981;SDS011;64109;52.148;4.466;2023-04-09T06:13:47;11.48;;;7.03;;
67981;SDS011;64109;52.148;4.466;2023-04-09T06:16:13;10.40;;;6.82;;
67981;SDS011;64109;52.148;4.466;2023-04-09T06:18:40;12.00;;;7.57;;
67981;SDS011;64109;52.148;4.466;2023-04-09T06:21:07;10.70;;;7.07;;
67981;SDS011;64109;52.148;4.466;2023-04-09T06:23:33;11.57;;;7.25;;
67981;SDS011;64109;52.148;4.466;2023-04-09T06:26:00;10.50;;;6.88;;
67981;SDS011;64109;52.148;4.466;2023-04-09T06:28:29;11.18;;;7.07;;
67981;SDS011;64109;52.148;4.466;2023-04-09T06:30:55;12.00;;;7.47;;
67981;SDS011;64109;52.148;4.466;2023-04-09T06:33:21;10.35;;;7.30;;
67981;SDS011;64109;52.148;4.466;2023-04-09T06:35:47;10.45;;;7.13;;
67981;SDS011;64109;52.148;4.466;2023-04-09T06:38:14;10.45;;;6.97;;
67981;SDS011;64109;52.148;4.466;2023-04-09T06:40:40;10.15;;;7.32;;
67981;SDS011;64109;52.148;4.466;2023-04-09T06:43:06;12.18;;;7.03;;
67981;SDS011;64109;52.148;4.466;2023-04-09T06:45:32;9.77;;;6.85;;
67981;SDS011;64109;52.148;4.466;2023-04-09T06:47:59;10.85;;;7.32;;
67981;SDS011;64109;52.148;4.466;2023-04-09T06:50:25;10.68;;;7.15;;
67981;SDS011;64109;52.148;4.466;2023-04-09T06:52:51;11.48;;;7.30;;
67981;SDS011;64109;52.148;4.466;2023-04-09T06:55:17;10.73;;;6.90;;
67981;SDS011;64109;52.148;4.466;2023-04-09T06:57:43;9.85;;;7.00;;
67981;SDS011;64109;52.148;4.466;2023-04-09T07:00:09;9.15;;;6.35;;
67981;SDS011;64109;52.148;4.466;2023-04-09T07:02:36;7.90;;;5.93;;
67981;SDS011;64109;52.148;4.466;2023-04-09T07:05:02;10.15;;;6.72;;
67981;SDS011;64109;52.148;4.466;2023-04-09T07:07:28;16.02;;;8.00;;
67981;SDS011;64109;52.148;4.466;2023-04-09T07:09:54;13.80;;;8.90;;
67981;SDS011;64109;52.148;4.466;2023-04-09T07:14:54;14.13;;;8.70;;
67981;SDS011;64109;52.148;4.466;2023-04-09T07:17:21;13.82;;;8.43;;
67981;SDS011;64109;52.148;4.466;2023-04-09T07:19:47;14.50;;;8.77;;
67981;SDS011;64109;52.148;4.466;2023-04-09T07:22:15;15.13;;;8.13;;
67981;SDS011;64109;52.148;4.466;2023-04-09T07:24:41;15.68;;;8.68;;
67981;SDS011;64109;52.148;4.466;2023-04-09T07:27:07;16.17;;;9.35;;
67981;SDS011;64109;52.148;4.466;2023-04-09T07:29:33;15.07;;;8.75;;
67981;SDS011;64109;52.148;4.466;2023-04-09T07:31:59;14.93;;;8.57;;
67981;SDS011;64109;52.148;4.466;2023-04-09T07:34:27;16.95;;;9.60;;
67981;SDS011;64109;52.148;4.466;2023-04-09T07:36:53;15.70;;;7.93;;
67981;SDS011;64109;52.148;4.466;2023-04-09T07:39:19;13.23;;;8.18;;
67981;SDS011;64109;52.148;4.466;2023-04-09T07:41:46;15.68;;;7.82;;
67981;SDS011;64109;52.148;4.466;2023-04-09T07:44:12;13.02;;;7.88;;
67981;SDS011;64109;52.148;4.466;2023-04-09T07:46:38;19.05;;;8.45;;
67981;SDS011;64109;52.148;4.466;2023-04-09T07:49:05;16.63;;;8.00;;
67981;SDS011;64109;52.148;4.466;2023-04-09T07:51:31;15.65;;;7.43;;
67981;SDS011;64109;52.148;4.466;2023-04-09T07:53:57;12.40;;;6.72;;
67981;SDS011;64109;52.148;4.466;2023-04-09T07:56:23;10.95;;;6.32;;
67981;SDS011;64109;52.148;4.466;2023-04-09T07:58:49;10.02;;;6.18;;
67981;SDS011;64109;52.148;4.466;2023-04-09T08:01:15;14.70;;;6.50;;
67981;SDS011;64109;52.148;4.466;2023-04-09T08:03:41;10.52;;;6.60;;
67981;SDS011;64109;52.148;4.466;2023-04-09T08:06:07;9.65;;;6.88;;
67981;SDS011;64109;52.148;4.466;2023-04-09T08:08:33;11.82;;;7.18;;
67981;SDS011;64109;52.148;4.466;2023-04-09T08:10:59;11.15;;;6.72;;
67981;SDS011;64109;52.148;4.466;2023-04-09T08:13:25;12.15;;;6.88;;
67981;SDS011;64109;52.148;4.466;2023-04-09T08:15:51;13.43;;;8.43;;
67981;SDS011;64109;52.148;4.466;2023-04-09T08:18:18;11.95;;;7.50;;
67981;SDS011;64109;52.148;4.466;2023-04-09T08:20:44;15.10;;;7.13;;
67981;SDS011;64109;52.148;4.466;2023-04-09T08:23:10;9.63;;;6.50;;
67981;SDS011;64109;52.148;4.466;2023-04-09T08:25:36;12.25;;;6.78;;
67981;SDS011;64109;52.148;4.466;2023-04-09T08:28:02;10.27;;;6.00;;
67981;SDS011;64109;52.148;4.466;2023-04-09T08:30:29;9.70;;;6.38;;
67981;SDS011;64109;52.148;4.466;2023-04-09T08:32:58;12.63;;;7.53;;
67981;SDS011;64109;52.148;4.466;2023-04-09T08:35:24;21.65;;;9.15;;
67981;SDS011;64109;52.148;4.466;2023-04-09T08:37:50;15.00;;;8.88;;
67981;SDS011;64109;52.148;4.466;2023-04-09T08:40:16;15.38;;;9.05;;
67981;SDS011;64109;52.148;4.466;2023-04-09T08:42:44;17.92;;;10.25;;
67981;SDS011;64109;52.148;4.466;2023-04-09T08:45:11;14.82;;;7.47;;
67981;SDS011;64109;52.148;4.466;2023-04-09T08:47:37;10.82;;;6.90;;
67981;SDS011;64109;52.148;4.466;2023-04-09T08:50:04;18.17;;;9.38;;
67981;SDS011;64109;52.148;4.466;2023-04-09T08:52:31;14.80;;;8.45;;
67981;SDS011;64109;52.148;4.466;2023-04-09T08:54:57;19.98;;;9.48;;
67981;SDS011;64109;52.148;4.466;2023-04-09T08:57:23;16.55;;;9.70;;
67981;SDS011;64109;52.148;4.466;2023-04-09T08:59:49;16.58;;;9.98;;
67981;SDS011;64109;52.148;4.466;2023-04-09T09:02:15;19.25;;;10.55;;
67981;SDS011;64109;52.148;4.466;2023-04-09T09:04:47;17.00;;;9.98;;
67981;SDS011;64109;52.148;4.466;2023-04-09T09:07:14;22.02;;;11.52;;
67981;SDS011;64109;52.148;4.466;2023-04-09T09:09:53;19.55;;;9.85;;
67981;SDS011;64109;52.148;4.466;2023-04-09T09:12:33;18.70;;;10.85;;
67981;SDS011;64109;52.148;4.466;2023-04-09T09:14:59;13.65;;;8.70;;
67981;SDS011;64109;52.148;4.466;2023-04-09T09:17:25;15.98;;;8.30;;
67981;SDS011;64109;52.148;4.466;2023-04-09T09:19:51;14.63;;;8.20;;
67981;SDS011;64109;52.148;4.466;2023-04-09T09:22:17;15.48;;;8.48;;
67981;SDS011;64109;52.148;4.466;2023-04-09T09:24:47;14.32;;;8.43;;
67981;SDS011;64109;52.148;4.466;2023-04-09T09:30:00;15.70;;;8.45;;
67981;SDS011;64109;52.148;4.466;2023-04-09T09:32:26;14.43;;;8.18;;
67981;SDS011;64109;52.148;4.466;2023-04-09T09:35:04;22.60;;;12.32;;
67981;SDS011;64109;52.148;4.466;2023-04-09T09:37:32;23.27;;;12.80;;
67981;SDS011;64109;52.148;4.466;2023-04-09T09:39:58;25.42;;;11.32;;
67981;SDS011;64109;52.148;4.466;2023-04-09T09:42:25;17.27;;;9.70;;
67981;SDS011;64109;52.148;4.466;2023-04-09T09:44:54;19.17;;;10.10;;
67981;SDS011;64109;52.148;4.466;2023-04-09T09:47:20;23.95;;;10.65;;
67981;SDS011;64109;52.148;4.466;2023-04-09T09:49:49;20.00;;;9.57;;
67981;SDS011;64109;52.148;4.466;2023-04-09T09:52:17;22.77;;;10.98;;
67981;SDS011;64109;52.148;4.466;2023-04-09T09:54:46;19.65;;;10.45;;
67981;SDS011;64109;52.148;4.466;2023-04-09T09:57:13;23.08;;;10.80;;
67981;SDS011;64109;52.148;4.466;2023-04-09T09:59:54;25.88;;;10.75;;
67981;SDS011;64109;52.148;4.466;2023-04-09T10:02:24;21.92;;;10.57;;
67981;SDS011;64109;52.148;4.466;2023-04-09T10:04:54;23.13;;;9.95;;
67981;SDS011;64109;52.148;4.466;2023-04-09T10:07:21;27.42;;;11.68;;
67981;SDS011;64109;52.148;4.466;2023-04-09T10:09:48;27.67;;;11.77;;
67981;SDS011;64109;52.148;4.466;2023-04-09T10:12:15;18.35;;;9.85;;
67981;SDS011;64109;52.148;4.466;2023-04-09T10:14:41;31.25;;;12.52;;
67981;SDS011;64109;52.148;4.466;2023-04-09T10:17:08;21.63;;;9.90;;
67981;SDS011;64109;52.148;4.466;2023-04-09T10:19:36;19.63;;;9.50;;
67981;SDS011;64109;52.148;4.466;2023-04-09T10:22:10;24.63;;;11.30;;
67981;SDS011;64109;52.148;4.466;2023-04-09T10:24:36;21.27;;;10.60;;
67981;SDS011;64109;52.148;4.466;2023-04-09T10:27:09;26.40;;;11.45;;
67981;SDS011;64109;52.148;4.466;2023-04-09T10:29:40;26.15;;;12.18;;
67981;SDS011;64109;52.148;4.466;2023-04-09T10:32:07;21.80;;;11.75;;
67981;SDS011;64109;52.148;4.466;2023-04-09T10:34:34;25.15;;;12.13;;
67981;SDS011;64109;52.148;4.466;2023-04-09T10:37:00;27.27;;;11.20;;
67981;SDS011;64109;52.148;4.466;2023-04-09T10:39:26;34.40;;;13.60;;
67981;SDS011;64109;52.148;4.466;2023-04-09T10:41:53;31.58;;;14.15;;
67981;SDS011;64109;52.148;4.466;2023-04-09T10:44:22;27.88;;;13.50;;
67981;SDS011;64109;52.148;4.466;2023-04-09T10:46:48;29.17;;;13.77;;
67981;SDS011;64109;52.148;4.466;2023-04-09T10:51:41;33.95;;;13.60;;
67981;SDS011;64109;52.148;4.466;2023-04-09T10:59:49;25.85;;;12.93;;
67981;SDS011;64109;52.148;4.466;2023-04-09T11:07:26;29.20;;;12.65;;
67981;SDS011;64109;52.148;4.466;2023-04-09T11:09:52;28.13;;;13.43;;
67981;SDS011;64109;52.148;4.466;2023-04-09T11:12:18;27.42;;;11.85;;
67981;SDS011;64109;52.148;4.466;2023-04-09T11:14:44;28.65;;;12.82;;
67981;SDS011;64109;52.148;4.466;2023-04-09T11:17:11;26.38;;;12.32;;
67981;SDS011;64109;52.148;4.466;2023-04-09T11:19:37;26.17;;;13.15;;
67981;SDS011;64109;52.148;4.466;2023-04-09T11:22:03;27.15;;;13.60;;
67981;SDS011;64109;52.148;4.466;2023-04-09T11:24:42;28.05;;;13.30;;
67981;SDS011;64109;52.148;4.466;2023-04-09T11:27:08;30.40;;;13.40;;
67981;SDS011;64109;52.148;4.466;2023-04-09T11:29:34;35.25;;;13.85;;
67981;SDS011;64109;52.148;4.466;2023-04-09T11:32:01;31.05;;;12.93;;
67981;SDS011;64109;52.148;4.466;2023-04-09T11:34:29;29.75;;;14.10;;
67981;SDS011;64109;52.148;4.466;2023-04-09T11:36:55;21.42;;;12.38;;
67981;SDS011;64109;52.148;4.466;2023-04-09T11:39:22;30.23;;;14.10;;
67981;SDS011;64109;52.148;4.466;2023-04-09T11:41:48;25.63;;;13.68;;
67981;SDS011;64109;52.148;4.466;2023-04-09T11:44:14;26.08;;;13.43;;
67981;SDS011;64109;52.148;4.466;2023-04-09T11:46:41;28.48;;;13.13;;
67981;SDS011;64109;52.148;4.466;2023-04-09T11:49:07;29.55;;;14.05;;
67981;SDS011;64109;52.148;4.466;2023-04-09T11:51:33;25.55;;;13.60;;
67981;SDS011;64109;52.148;4.466;2023-04-09T11:54:06;26.10;;;13.60;;
67981;SDS011;64109;52.148;4.466;2023-04-09T11:56:33;27.95;;;14.15;;
67981;SDS011;64109;52.148;4.466;2023-04-09T11:59:00;26.08;;;13.77;;
67981;SDS011;64109;52.148;4.466;2023-04-09T12:01:29;27.67;;;13.00;;
67981;SDS011;64109;52.148;4.466;2023-04-09T12:03:57;23.52;;;12.80;;
67981;SDS011;64109;52.148;4.466;2023-04-09T12:06:23;27.27;;;14.02;;
67981;SDS011;64109;52.148;4.466;2023-04-09T12:08:52;24.92;;;13.25;;
67981;SDS011;64109;52.148;4.466;2023-04-09T12:13:44;23.27;;;12.57;;
67981;SDS011;64109;52.148;4.466;2023-04-09T12:16:11;29.77;;;13.35;;
67981;SDS011;64109;52.148;4.466;2023-04-09T12:18:37;26.08;;;13.57;;
67981;SDS011;64109;52.148;4.466;2023-04-09T12:21:03;25.95;;;12.68;;
67981;SDS011;64109;52.148;4.466;2023-04-09T12:23:30;23.42;;;13.05;;
67981;SDS011;64109;52.148;4.466;2023-04-09T12:25:56;25.58;;;12.77;;
67981;SDS011;64109;52.148;4.466;2023-04-09T12:28:25;25.80;;;12.52;;
67981;SDS011;64109;52.148;4.466;2023-04-09T12:30:51;24.05;;;12.93;;
67981;SDS011;64109;52.148;4.466;2023-04-09T12:33:18;30.33;;;13.38;;
67981;SDS011;64109;52.148;4.466;2023-04-09T12:35:44;26.10;;;13.25;;
67981;SDS011;64109;52.148;4.466;2023-04-09T12:38:10;26.50;;;13.07;;
67981;SDS011;64109;52.148;4.466;2023-04-09T12:40:36;22.35;;;11.98;;
67981;SDS011;64109;52.148;4.466;2023-04-09T12:43:02;24.10;;;11.40;;
67981;SDS011;64109;52.148;4.466;2023-04-09T12:45:28;29.25;;;11.85;;
67981;SDS011;64109;52.148;4.466;2023-04-09T12:47:55;26.77;;;12.10;;
67981;SDS011;64109;52.148;4.466;2023-04-09T12:50:21;24.90;;;12.50;;
67981;SDS011;64109;52.148;4.466;2023-04-09T12:52:48;30.13;;;12.75;;
67981;SDS011;64109;52.148;4.466;2023-04-09T12:55:14;22.73;;;11.32;;
67981;SDS011;64109;52.148;4.466;2023-04-09T12:57:44;26.88;;;11.82;;
67981;SDS011;64109;52.148;4.466;2023-04-09T13:00:13;26.98;;;12.15;;
67981;SDS011;64109;52.148;4.466;2023-04-09T13:02:39;25.10;;;11.20;;
67981;SDS011;64109;52.148;4.466;2023-04-09T13:05:05;23.58;;;11.55;;
67981;SDS011;64109;52.148;4.466;2023-04-09T13:07:31;23.65;;;11.70;;
67981;SDS011;64109;52.148;4.466;2023-04-09T13:09:57;25.30;;;11.93;;
67981;SDS011;64109;52.148;4.466;2023-04-09T13:12:23;26.35;;;12.13;;
67981;SDS011;64109;52.148;4.466;2023-04-09T13:14:51;25.30;;;11.48;;
67981;SDS011;64109;52.148;4.466;2023-04-09T13:17:17;28.23;;;10.90;;
67981;SDS011;64109;52.148;4.466;2023-04-09T13:19:43;24.02;;;11.30;;
67981;SDS011;64109;52.148;4.466;2023-04-09T13:22:09;20.73;;;10.50;;
67981;SDS011;64109;52.148;4.466;2023-04-09T13:24:36;23.15;;;10.93;;
67981;SDS011;64109;52.148;4.466;2023-04-09T13:27:03;23.65;;;10.77;;
67981;SDS011;64109;52.148;4.466;2023-04-09T13:29:29;23.95;;;11.20;;
67981;SDS011;64109;52.148;4.466;2023-04-09T13:31:55;21.00;;;10.77;;
67981;SDS011;64109;52.148;4.466;2023-04-09T13:34:22;28.00;;;11.15;;
67981;SDS011;64109;52.148;4.466;2023-04-09T13:36:48;21.83;;;10.75;;
67981;SDS011;64109;52.148;4.466;2023-04-09T13:39:14;22.20;;;10.43;;
67981;SDS011;64109;52.148;4.466;2023-04-09T13:41:40;23.13;;;11.30;;
67981;SDS011;64109;52.148;4.466;2023-04-09T13:44:06;27.02;;;11.23;;
67981;SDS011;64109;52.148;4.466;2023-04-09T13:46:32;23.73;;;10.80;;
67981;SDS011;64109;52.148;4.466;2023-04-09T13:48:58;24.65;;;10.75;;
67981;SDS011;64109;52.148;4.466;2023-04-09T13:51:24;18.98;;;10.48;;
67981;SDS011;64109;52.148;4.466;2023-04-09T13:53:53;29.85;;;11.48;;
67981;SDS011;64109;52.148;4.466;2023-04-09T13:56:19;25.52;;;9.73;;
67981;SDS011;64109;52.148;4.466;2023-04-09T13:58:45;18.88;;;10.02;;
67981;SDS011;64109;52.148;4.466;2023-04-09T14:01:12;21.58;;;10.02;;
67981;SDS011;64109;52.148;4.466;2023-04-09T14:03:38;22.42;;;10.52;;
67981;SDS011;64109;52.148;4.466;2023-04-09T14:06:05;25.30;;;10.82;;
67981;SDS011;64109;52.148;4.466;2023-04-09T14:08:32;25.45;;;10.25;;
67981;SDS011;64109;52.148;4.466;2023-04-09T14:10:58;22.95;;;10.27;;
67981;SDS011;64109;52.148;4.466;2023-04-09T14:13:24;25.23;;;10.70;;
67981;SDS011;64109;52.148;4.466;2023-04-09T14:15:50;26.08;;;10.98;;
67981;SDS011;64109;52.148;4.466;2023-04-09T14:18:16;20.33;;;10.43;;
67981;SDS011;64109;52.148;4.466;2023-04-09T14:20:42;20.48;;;10.32;;
67981;SDS011;64109;52.148;4.466;2023-04-09T14:23:08;23.80;;;9.98;;
67981;SDS011;64109;52.148;4.466;2023-04-09T14:25:34;23.42;;;10.23;;
67981;SDS011;64109;52.148;4.466;2023-04-09T14:28:01;25.50;;;9.63;;
67981;SDS011;64109;52.148;4.466;2023-04-09T14:30:27;24.98;;;9.80;;
67981;SDS011;64109;52.148;4.466;2023-04-09T14:32:53;23.63;;;10.00;;
67981;SDS011;64109;52.148;4.466;2023-04-09T14:35:19;23.85;;;10.18;;
67981;SDS011;64109;52.148;4.466;2023-04-09T14:37:45;25.60;;;9.57;;
67981;SDS011;64109;52.148;4.466;2023-04-09T14:40:11;23.33;;;11.15;;
67981;SDS011;64109;52.148;4.466;2023-04-09T14:42:38;22.00;;;11.00;;
67981;SDS011;64109;52.148;4.466;2023-04-09T14:45:04;26.30;;;11.30;;
67981;SDS011;64109;52.148;4.466;2023-04-09T14:47:30;24.02;;;11.20;;
67981;SDS011;64109;52.148;4.466;2023-04-09T14:49:56;26.02;;;10.88;;
67981;SDS011;64109;52.148;4.466;2023-04-09T14:52:22;22.63;;;10.25;;
67981;SDS011;64109;52.148;4.466;2023-04-09T14:54:48;20.90;;;10.43;;
67981;SDS011;64109;52.148;4.466;2023-04-09T14:57:14;23.02;;;11.98;;
67981;SDS011;64109;52.148;4.466;2023-04-09T14:59:40;21.17;;;10.25;;
67981;SDS011;64109;52.148;4.466;2023-04-09T15:02:06;21.65;;;10.50;;